Rye Beach, New Hampshire
Current Conditions -  °F | °C
As of 4:58 AM on Sunday 25 Jan 2015 (Local Time) from KPSM Reporting Station
Broken Clouds Broken Clouds  
Wind Chill: 23°   Ceiling: 25000
Heat Index: 30°   Visibility: 10mi
Dew Point: 24°   Wind: 8mph
Humidity: 77%   Direction: 250°WSW
Pressure: 29.37"   Gusts: NA
Location:  42.98°N, 70.76°W
Report Text: KPSM 250958Z 25007KT 10SM FEW040 SCT080 BKN250 M01/M04 A2937 RMK AO2A SLP950 T10091045
Loading
Personal Weather Stations






























Interactive Weather Map New forecast layout! Learn more

10-Day Weather Forecast

Advertisements
Track Severe Weather on mobile